createdAt,value
2022-11-13T00:00:53.039Z,24.9
2022-11-13T00:06:15.574Z,24.7
2022-11-13T00:11:40.593Z,24.4
2022-11-13T00:17:08.187Z,24.1
2022-11-13T00:22:46.487Z,23.8
2022-11-13T00:27:53.148Z,25.3
2022-11-13T00:33:38.519Z,26
2022-11-13T00:39:53.407Z,25.1
2022-11-13T00:45:19.064Z,24.8
2022-11-13T00:50:41.488Z,24.5
2022-11-13T00:55:49.126Z,24.3
2022-11-13T01:00:56.238Z,24
2022-11-13T01:06:19.764Z,23.8
2022-11-13T01:11:43.914Z,23.5
2022-11-13T01:16:50.475Z,23.3
2022-11-13T01:22:13.080Z,23.1
2022-11-13T01:27:20.374Z,23
2022-11-13T01:32:42.827Z,22.9
2022-11-13T01:38:21.263Z,22.8
2022-11-13T01:43:43.488Z,22.8
2022-11-13T01:49:05.827Z,22.8
2022-11-13T01:54:28.335Z,22.8
2022-11-13T02:00:06.621Z,22.8
2022-11-13T02:05:44.713Z,22.8
2022-11-13T02:11:23.665Z,22.8
2022-11-13T02:16:46.346Z,22.8
2022-11-13T02:22:24.004Z,22.8
2022-11-13T02:27:49.089Z,22.8
2022-11-13T02:33:16.223Z,22.8
2022-11-13T02:38:23.033Z,22.9
2022-11-13T02:43:44.576Z,22.8
2022-11-13T02:49:06.583Z,22.8
2022-11-13T02:54:49.835Z,22.8
2022-11-13T03:00:30.612Z,22.8
2022-11-13T03:06:54.662Z,22.8
2022-11-13T03:12:17.579Z,22.7
2022-11-13T03:17:39.915Z,22.7
2022-11-13T03:23:02.486Z,22.6
2022-11-13T03:28:30.411Z,22.6
2022-11-13T03:33:21.718Z,22.6
2022-11-13T03:38:50.034Z,22.5
2022-11-13T03:44:27.868Z,22.4
2022-11-13T03:50:05.427Z,22.4
2022-11-13T03:55:49.372Z,22.3
2022-11-13T04:01:33.541Z,22.3
2022-11-13T04:07:13.851Z,22.2
2022-11-13T04:12:36.060Z,22.1
2022-11-13T04:18:14.767Z,22.1
2022-11-13T04:23:51.352Z,22
2022-11-13T04:29:28.867Z,21.9
2022-11-13T04:35:07.141Z,21.8
2022-11-13T04:40:44.856Z,21.8
2022-11-13T04:46:09.643Z,21.6
2022-11-13T04:51:48.554Z,21.6
2022-11-13T04:57:30.762Z,21.5
2022-11-13T05:03:08.961Z,21.4
2022-11-13T05:08:31.896Z,21.4
2022-11-13T05:13:55.113Z,21.3
2022-11-13T05:19:33.974Z,21.3
2022-11-13T05:25:12.726Z,21.2
2022-11-13T05:30:53.953Z,21.1
2022-11-13T05:36:34.588Z,21
2022-11-13T05:41:57.554Z,20.9
2022-11-13T05:47:36.396Z,20.9
2022-11-13T05:53:14.379Z,20.8
2022-11-13T05:58:52.888Z,20.8
2022-11-13T06:04:30.833Z,20.7
2022-11-13T06:10:10.542Z,20.6
2022-11-13T06:15:49.218Z,20.6
2022-11-13T06:21:29.225Z,20.4
2022-11-13T06:26:51.586Z,20.4
2022-11-13T06:32:30.114Z,20.4
2022-11-13T06:38:09.436Z,20.3
2022-11-13T06:43:32.650Z,20.3
2022-11-13T06:48:56.041Z,20.3
2022-11-13T06:54:24.561Z,20.2
2022-11-13T06:59:47.622Z,20.1
2022-11-13T07:05:12.018Z,20.1
2022-11-13T07:10:35.404Z,20.1
2022-11-13T07:16:17.218Z,20
2022-11-13T07:22:14.999Z,20
2022-11-13T07:27:53.746Z,19.9
2022-11-13T07:33:22.160Z,19.9
2022-11-13T07:39:00.652Z,19.9
2022-11-13T07:44:09.380Z,19.9
2022-11-13T07:50:03.587Z,19.8
2022-11-13T07:55:28.694Z,19.8
2022-11-13T08:00:39.546Z,19.8
2022-11-13T08:06:03.357Z,19.8
2022-11-13T08:11:28.301Z,19.8
2022-11-13T08:16:20.743Z,19.8
2022-11-13T08:21:31.618Z,19.7
2022-11-13T08:26:38.962Z,19.7
2022-11-13T08:31:51.011Z,19.6
2022-11-13T08:37:32.617Z,19.6
2022-11-13T08:43:10.479Z,19.6
2022-11-13T08:48:53.040Z,19.6
2022-11-13T08:54:16.283Z,19.6
2022-11-13T08:59:59.621Z,19.6
2022-11-13T09:05:37.062Z,19.6
2022-11-13T09:11:20.298Z,19.5
2022-11-13T09:17:05.079Z,19.5
2022-11-13T09:22:35.947Z,19.5
2022-11-13T09:28:04.961Z,19.5
2022-11-13T09:33:32.259Z,19.4
2022-11-13T09:39:01.625Z,19.5
2022-11-13T09:44:31.449Z,19.4
2022-11-13T09:49:39.182Z,19.4
2022-11-13T09:55:06.529Z,19.4
2022-11-13T10:00:45.213Z,19.4
2022-11-13T10:06:43.899Z,19.4
2022-11-13T10:12:22.456Z,19.4
2022-11-13T10:18:01.326Z,19.4
2022-11-13T10:23:54.624Z,19.4
2022-11-13T10:29:22.115Z,19.4
2022-11-13T10:34:49.977Z,19.4
2022-11-13T10:40:19.745Z,19.3
2022-11-13T10:46:02.725Z,19.4
2022-11-13T10:51:56.915Z,19.3
2022-11-13T10:57:03.985Z,19.3
2022-11-13T11:02:45.723Z,19.3
2022-11-13T11:08:44.662Z,19.3
2022-11-13T11:14:27.622Z,19.3
2022-11-13T11:20:06.026Z,19.3
2022-11-13T11:25:47.004Z,19.3
2022-11-13T11:31:24.509Z,19.3
2022-11-13T11:37:02.000Z,19.3
2022-11-13T11:42:25.192Z,19.3
2022-11-13T11:53:32.397Z,19.3
2022-11-13T11:59:11.016Z,19.3
2022-11-13T12:04:49.143Z,19.3
2022-11-13T12:10:12.513Z,19.3
2022-11-13T12:15:34.462Z,19.3
2022-11-13T12:21:13.642Z,19.3
2022-11-13T12:26:51.577Z,19.3
2022-11-13T12:32:33.755Z,19.3
2022-11-13T12:38:16.031Z,19.2
2022-11-13T12:43:56.638Z,19.3
2022-11-13T12:49:20.228Z,19.2
2022-11-13T12:54:48.418Z,19.2
2022-11-13T13:00:30.951Z,19.2
2022-11-13T13:06:10.038Z,19.2
2022-11-13T13:11:48.659Z,19.2
2022-11-13T13:17:16.119Z,19.2
2022-11-13T13:22:08.821Z,19.2
2022-11-13T13:27:15.857Z,19.2
2022-11-13T13:32:44.245Z,19.2
2022-11-13T13:37:53.738Z,19.2
2022-11-13T13:43:07.751Z,19.2
2022-11-13T13:48:46.869Z,19.2
2022-11-13T13:54:01.194Z,19.2
2022-11-13T13:59:28.996Z,19.2
2022-11-13T14:05:14.336Z,19.2
2022-11-13T14:10:53.085Z,19.1
2022-11-13T14:16:31.724Z,19.1
2022-11-13T14:22:09.477Z,19.2
2022-11-13T14:27:32.652Z,19.1
2022-11-13T14:33:14.034Z,19.1
2022-11-13T14:38:52.681Z,19.1
2022-11-13T14:44:32.303Z,19.1
2022-11-13T14:50:11.009Z,19.1
2022-11-13T14:56:04.655Z,19.1
2022-11-13T15:01:33.223Z,19.1
2022-11-13T15:06:25.951Z,19.1
2022-11-13T15:11:18.193Z,19.1
2022-11-13T15:16:09.370Z,19.1
2022-11-13T15:21:17.719Z,19.1
2022-11-13T15:27:16.491Z,19.1
2022-11-13T15:32:23.906Z,19.1
2022-11-13T15:37:30.941Z,19.1
2022-11-13T15:42:45.764Z,19.1
2022-11-13T15:48:14.568Z,28.6
2022-11-13T15:54:12.750Z,32.6
2022-11-13T15:59:40.687Z,35.6
2022-11-13T16:05:28.133Z,37.8
2022-11-13T16:10:50.718Z,38.7
2022-11-13T16:16:20.346Z,39.9
2022-11-13T16:21:47.302Z,39.7
2022-11-13T16:27:26.749Z,39.7
2022-11-13T16:33:21.201Z,42.6
2022-11-13T16:38:43.467Z,43.1
2022-11-13T16:44:26.988Z,43
2022-11-13T16:50:06.828Z,43
2022-11-13T16:55:44.901Z,42.9
2022-11-13T17:01:15.382Z,42.9
2022-11-13T17:06:56.780Z,42.7
2022-11-13T17:13:02.368Z,42.7
2022-11-13T17:18:25.077Z,42.2
2022-11-13T17:24:04.153Z,40.6
2022-11-13T17:29:42.086Z,37.5
2022-11-13T17:35:04.913Z,37.4
2022-11-13T17:40:45.009Z,37
2022-11-13T17:46:13.569Z,36.8
2022-11-13T17:51:27.494Z,39.8
2022-11-13T17:57:06.841Z,40.8
2022-11-13T18:02:32.254Z,38.4
2022-11-13T18:07:59.129Z,38.6
2022-11-13T18:13:22.982Z,41.8
2022-11-13T18:19:02.137Z,41.6
2022-11-13T18:25:00.313Z,43.2
2022-11-13T18:30:43.727Z,43.3
2022-11-13T18:36:21.941Z,43.2
2022-11-13T18:42:02.646Z,42.5
2022-11-13T18:47:42.453Z,38.4
2022-11-13T18:53:04.755Z,39
2022-11-13T18:58:43.351Z,37.3
2022-11-13T19:04:54.305Z,40.8
2022-11-13T19:10:36.755Z,41.4
2022-11-13T19:15:59.853Z,41.9
2022-11-13T19:21:43.496Z,40.8
2022-11-13T19:27:23.707Z,38.6
2022-11-13T19:32:46.331Z,37.1
2022-11-13T19:38:26.599Z,36.2
2022-11-13T19:44:05.284Z,36.2
2022-11-13T19:49:43.375Z,36.1
2022-11-13T19:55:06.554Z,35.3
2022-11-13T20:00:32.731Z,34.4
2022-11-13T20:05:56.157Z,33.4
2022-11-13T20:11:19.850Z,32.6
2022-11-13T20:16:41.500Z,32
2022-11-13T20:22:20.428Z,31.4
2022-11-13T20:27:47.068Z,30.6
2022-11-13T20:33:25.358Z,29.9
2022-11-13T20:39:08.194Z,29.5
2022-11-13T20:44:46.950Z,34.1
2022-11-13T20:50:25.620Z,39.1
2022-11-13T20:55:51.696Z,40.6
2022-11-13T21:01:34.964Z,40.4
2022-11-13T21:07:17.262Z,39.3
2022-11-13T21:12:55.260Z,38.6
2022-11-13T21:18:33.849Z,38.1
2022-11-13T21:24:12.197Z,36.8
2022-11-13T21:29:55.957Z,37.8
2022-11-13T21:35:39.476Z,36.3
2022-11-13T21:41:17.851Z,37.3
2022-11-13T21:46:55.740Z,35.4
2022-11-13T21:52:33.954Z,35.6
2022-11-13T21:58:12.486Z,35.1
2022-11-13T22:03:53.187Z,34.2
2022-11-13T22:09:31.728Z,32.9
2022-11-13T22:15:11.693Z,31.8
2022-11-13T22:20:53.417Z,30.9
2022-11-13T22:26:31.979Z,30.1
2022-11-13T22:32:10.139Z,29.4
2022-11-13T22:37:47.601Z,28.9
2022-11-13T22:43:25.572Z,28.6
2022-11-13T22:49:38.506Z,28.2
2022-11-13T22:55:16.665Z,27.9
2022-11-13T23:00:39.226Z,27.5
2022-11-13T23:06:08.122Z,27.2
2022-11-13T23:11:47.337Z,26.9
2022-11-13T23:16:54.777Z,26.6
2022-11-13T23:22:38.751Z,26.3
2022-11-13T23:28:16.756Z,26.1
2022-11-13T23:33:43.693Z,25.9
2022-11-13T23:39:46.934Z,25.6
2022-11-13T23:46:05.867Z,25.3
2022-11-13T23:51:43.954Z,25
2022-11-13T23:57:22.235Z,24.8
